createdAt,value
2023-04-22T00:00:42.813Z,8.73
2023-04-22T00:03:18.566Z,10.20
2023-04-22T00:05:46.788Z,9.67
2023-04-22T00:08:14.021Z,9.30
2023-04-22T00:10:41.830Z,9.53
2023-04-22T00:13:09.340Z,8.23
2023-04-22T00:15:37.105Z,8.63
2023-04-22T00:18:04.796Z,9.20
2023-04-22T00:20:33.054Z,8.87
2023-04-22T00:23:00.065Z,9.17
2023-04-22T00:25:27.824Z,8.47
2023-04-22T00:27:55.328Z,9.33
2023-04-22T00:30:22.641Z,8.20
2023-04-22T00:32:50.292Z,9.63
2023-04-22T00:35:18.229Z,8.70
2023-04-22T00:37:45.355Z,8.27
2023-04-22T00:40:12.889Z,8.20
2023-04-22T00:42:41.371Z,9.47
2023-04-22T00:45:12.082Z,9.83
2023-04-22T00:47:39.626Z,9.53
2023-04-22T00:50:07.815Z,8.77
2023-04-22T00:52:34.855Z,8.67
2023-04-22T00:55:02.474Z,8.07
2023-04-22T00:57:33.612Z,8.35
2023-04-22T01:00:01.481Z,8.27
2023-04-22T01:02:29.875Z,8.03
2023-04-22T01:04:59.731Z,7.73
2023-04-22T01:07:27.295Z,10.47
2023-04-22T01:09:55.118Z,9.50
2023-04-22T01:12:22.633Z,9.40
2023-04-22T01:14:50.654Z,8.47
2023-04-22T01:17:19.461Z,10.23
2023-04-22T01:19:47.592Z,10.57
2023-04-22T01:22:15.347Z,10.30
2023-04-22T01:24:43.720Z,10.67
2023-04-22T01:27:12.055Z,11.07
2023-04-22T01:29:39.988Z,10.13
2023-04-22T01:32:07.780Z,10.07
2023-04-22T01:34:35.356Z,9.37
2023-04-22T01:37:02.893Z,9.57
2023-04-22T01:39:30.911Z,9.17
2023-04-22T01:41:58.777Z,9.23
2023-04-22T01:44:27.027Z,9.43
2023-04-22T01:46:54.580Z,9.33
2023-04-22T01:49:22.592Z,8.57
2023-04-22T01:51:51.523Z,10.30
2023-04-22T01:54:21.392Z,10.57
2023-04-22T01:56:55.193Z,9.97
2023-04-22T01:59:23.761Z,9.57
2023-04-22T02:01:51.450Z,11.13
2023-04-22T02:04:20.120Z,11.60
2023-04-22T02:06:47.610Z,12.13
2023-04-22T02:09:15.655Z,12.07
2023-04-22T02:11:43.095Z,9.73
2023-04-22T02:14:10.830Z,10.90
2023-04-22T02:16:37.945Z,12.57
2023-04-22T02:19:05.655Z,12.20
2023-04-22T02:21:34.285Z,11.20
2023-04-22T02:24:02.073Z,10.90
2023-04-22T02:26:30.870Z,10.57
2023-04-22T02:28:59.144Z,10.40
2023-04-22T02:31:27.738Z,11.33
2023-04-22T02:33:55.894Z,11.13
2023-04-22T02:36:23.431Z,11.67
2023-04-22T02:38:51.660Z,11.93
2023-04-22T02:41:18.744Z,11.40
2023-04-22T02:43:46.554Z,12.40
2023-04-22T02:46:16.315Z,11.93
2023-04-22T02:48:44.338Z,11.80
2023-04-22T02:51:12.041Z,12.23
2023-04-22T02:53:39.880Z,10.73
2023-04-22T02:56:08.549Z,11.47
2023-04-22T02:58:36.498Z,12.23
2023-04-22T03:01:04.311Z,12.70
2023-04-22T03:03:32.342Z,13.60
2023-04-22T03:06:00.410Z,12.10
2023-04-22T03:08:28.395Z,12.13
2023-04-22T03:10:55.636Z,13.33
2023-04-22T03:13:23.675Z,13.23
2023-04-22T03:15:51.863Z,13.57
2023-04-22T03:18:20.499Z,12.37
2023-04-22T03:20:48.282Z,12.87
2023-04-22T03:23:16.230Z,13.13
2023-04-22T03:25:43.721Z,13.83
2023-04-22T03:28:11.596Z,13.47
2023-04-22T03:30:39.066Z,13.73
2023-04-22T03:33:07.068Z,13.17
2023-04-22T03:35:42.911Z,12.53
2023-04-22T03:38:12.446Z,12.30
2023-04-22T03:40:39.610Z,12.93
2023-04-22T03:43:17.853Z,13.20
2023-04-22T03:45:53.109Z,13.10
2023-04-22T03:48:24.925Z,12.80
2023-04-22T03:50:53.618Z,12.40
2023-04-22T03:53:21.030Z,12.37
2023-04-22T03:55:48.531Z,12.87
2023-04-22T03:58:18.304Z,12.47
2023-04-22T04:00:46.564Z,12.80
2023-04-22T04:03:17.334Z,12.63
2023-04-22T04:05:48.049Z,12.57
2023-04-22T04:08:15.983Z,12.07
2023-04-22T04:10:43.946Z,11.27
2023-04-22T04:13:11.749Z,11.33
2023-04-22T04:16:00.439Z,12.30
2023-04-22T04:18:29.875Z,12.80
2023-04-22T04:20:57.496Z,11.80
2023-04-22T04:23:28.325Z,12.40
2023-04-22T04:25:55.839Z,12.20
2023-04-22T04:28:23.321Z,12.10
2023-04-22T04:30:50.461Z,11.73
2023-04-22T04:33:18.149Z,12.70
2023-04-22T04:35:48.091Z,12.27
2023-04-22T04:38:19.682Z,12.23
2023-04-22T04:40:51.052Z,12.43
2023-04-22T04:43:26.091Z,12.70
2023-04-22T04:46:21.471Z,12.87
2023-04-22T04:48:50.783Z,12.87
2023-04-22T04:51:20.368Z,12.87
2023-04-22T04:53:55.419Z,13.23
2023-04-22T04:56:23.943Z,12.57
2023-04-22T04:58:52.580Z,13.07
2023-04-22T05:01:23.725Z,13.57
2023-04-22T05:03:52.553Z,12.27
2023-04-22T05:06:21.589Z,12.70
2023-04-22T05:09:03.582Z,13.67
2023-04-22T05:11:30.901Z,13.63
2023-04-22T05:14:00.811Z,15.13
2023-04-22T05:16:33.240Z,14.70
2023-04-22T05:19:01.332Z,15.97
2023-04-22T05:21:28.577Z,17.97
2023-04-22T05:23:58.134Z,17.03
2023-04-22T05:26:26.036Z,18.43
2023-04-22T05:28:53.881Z,20.07
2023-04-22T05:31:22.238Z,18.83
2023-04-22T05:33:49.688Z,16.93
2023-04-22T05:36:17.270Z,16.33
2023-04-22T05:38:47.199Z,15.27
2023-04-22T05:41:15.785Z,16.50
2023-04-22T05:43:43.580Z,17.73
2023-04-22T05:46:15.890Z,17.20
2023-04-22T05:48:44.891Z,16.07
2023-04-22T05:51:32.955Z,13.40
2023-04-22T05:54:00.503Z,11.43
2023-04-22T05:56:27.871Z,12.60
2023-04-22T05:58:55.701Z,12.07
2023-04-22T06:01:24.998Z,13.73
2023-04-22T06:03:58.023Z,9.50
2023-04-22T06:06:26.249Z,10.13
2023-04-22T06:08:53.964Z,9.03
2023-04-22T06:11:21.098Z,10.73
2023-04-22T06:13:48.504Z,8.57
2023-04-22T06:16:16.491Z,8.83
2023-04-22T06:18:43.991Z,8.10
2023-04-22T06:21:12.470Z,7.80
2023-04-22T06:23:40.690Z,8.30
2023-04-22T06:26:08.264Z,6.80
2023-04-22T06:28:37.656Z,7.13
2023-04-22T06:31:10.441Z,6.75
2023-04-22T06:33:38.114Z,6.25
2023-04-22T06:36:06.141Z,6.70
2023-04-22T06:38:35.197Z,8.07
2023-04-22T06:41:22.577Z,8.40
2023-04-22T06:43:51.826Z,8.60
2023-04-22T06:46:19.045Z,7.78
2023-04-22T06:48:52.591Z,7.43
2023-04-22T06:51:49.157Z,6.82
2023-04-22T06:54:16.781Z,5.15
2023-04-22T06:56:44.862Z,6.07
2023-04-22T06:59:12.586Z,6.55
2023-04-22T07:01:39.864Z,5.72
2023-04-22T07:04:08.070Z,6.07
2023-04-22T07:06:35.891Z,5.80
2023-04-22T07:09:04.273Z,5.63
2023-04-22T07:11:32.069Z,5.28
2023-04-22T07:14:06.773Z,5.15
2023-04-22T07:16:34.081Z,6.18
2023-04-22T07:19:01.730Z,6.07
2023-04-22T07:21:29.139Z,5.00
2023-04-22T07:23:56.678Z,6.40
2023-04-22T07:26:24.397Z,6.13
2023-04-22T07:28:52.218Z,5.85
2023-04-22T07:31:19.507Z,6.63
2023-04-22T07:33:46.893Z,5.28
2023-04-22T07:36:14.112Z,5.50
2023-04-22T07:38:41.602Z,5.60
2023-04-22T07:41:08.825Z,5.20
2023-04-22T07:43:37.240Z,5.43
2023-04-22T07:46:04.661Z,5.40
2023-04-22T07:48:32.232Z,6.20
2023-04-22T07:50:59.518Z,6.30
2023-04-22T07:53:27.097Z,7.05
2023-04-22T07:55:55.596Z,6.65
2023-04-22T07:58:23.312Z,6.63
2023-04-22T08:00:50.516Z,6.72
2023-04-22T08:03:18.307Z,5.88
2023-04-22T08:05:45.822Z,5.43
2023-04-22T08:08:13.327Z,5.43
2023-04-22T08:10:40.614Z,5.68
2023-04-22T08:13:08.150Z,4.35
2023-04-22T08:15:35.534Z,5.50
2023-04-22T08:18:03.558Z,5.13
2023-04-22T08:20:30.902Z,4.70
2023-04-22T08:23:00.661Z,3.85
2023-04-22T08:25:28.598Z,3.88
2023-04-22T08:27:56.328Z,4.25
2023-04-22T08:30:23.824Z,4.35
2023-04-22T08:32:53.486Z,4.78
2023-04-22T08:35:20.944Z,4.28
2023-04-22T08:37:48.749Z,4.28
2023-04-22T08:40:15.876Z,5.10
2023-04-22T08:42:44.587Z,4.13
2023-04-22T08:45:13.302Z,4.65
2023-04-22T08:47:41.443Z,4.60
2023-04-22T08:50:10.892Z,3.92
2023-04-22T08:52:38.634Z,3.85
2023-04-22T08:55:06.527Z,4.00
2023-04-22T08:57:36.068Z,4.10
2023-04-22T09:00:05.431Z,5.53
2023-04-22T09:02:35.379Z,4.63
2023-04-22T09:05:03.615Z,4.68
2023-04-22T09:07:32.617Z,3.55
2023-04-22T09:10:00.411Z,2.78
2023-04-22T09:12:28.959Z,2.90
2023-04-22T09:14:57.582Z,3.70
2023-04-22T09:17:33.409Z,3.10
2023-04-22T09:20:02.650Z,2.63
2023-04-22T09:22:41.538Z,2.80
2023-04-22T09:25:16.798Z,2.83
2023-04-22T09:27:44.732Z,3.15
2023-04-22T09:30:13.856Z,2.60
2023-04-22T09:32:41.326Z,3.05
2023-04-22T09:35:09.718Z,5.75
2023-04-22T09:37:48.487Z,2.90
2023-04-22T09:40:18.324Z,2.60
2023-04-22T09:42:53.102Z,3.08
2023-04-22T09:45:31.297Z,2.90
2023-04-22T09:48:06.438Z,2.97
2023-04-22T09:50:33.573Z,2.47
2023-04-22T09:53:04.645Z,3.00
2023-04-22T09:55:38.028Z,2.88
2023-04-22T09:58:12.536Z,2.53
2023-04-22T10:00:47.744Z,2.33
2023-04-22T10:03:16.583Z,3.15
2023-04-22T10:05:46.259Z,3.58
2023-04-22T10:08:15.593Z,2.42
2023-04-22T10:10:43.095Z,2.38
2023-04-22T10:13:10.679Z,2.67
2023-04-22T10:15:44.577Z,2.30
2023-04-22T10:18:14.937Z,2.40
2023-04-22T10:20:43.463Z,2.80
2023-04-22T10:23:18.893Z,2.95
2023-04-22T10:25:58.555Z,3.08
2023-04-22T10:28:29.432Z,2.78
2023-04-22T10:30:57.959Z,2.17
2023-04-22T10:33:27.775Z,2.45
2023-04-22T10:36:16.560Z,1.90
2023-04-22T10:38:50.170Z,2.40
2023-04-22T10:41:23.805Z,2.10
2023-04-22T10:43:59.283Z,2.60
2023-04-22T10:46:39.970Z,2.22
2023-04-22T10:49:13.100Z,1.95
2023-04-22T10:51:40.803Z,2.05
2023-04-22T10:54:36.550Z,2.15
2023-04-22T10:57:12.119Z,2.10
2023-04-22T10:59:52.260Z,2.47
2023-04-22T11:02:20.931Z,2.80
2023-04-22T11:04:49.538Z,2.05
2023-04-22T11:07:29.739Z,1.92
2023-04-22T11:10:10.733Z,2.50
2023-04-22T11:12:42.335Z,2.10
2023-04-22T11:15:15.369Z,2.17
2023-04-22T11:17:45.342Z,2.38
2023-04-22T11:20:17.323Z,1.85
2023-04-22T11:22:47.211Z,1.90
2023-04-22T11:25:14.950Z,2.08
2023-04-22T11:27:45.362Z,2.15
2023-04-22T11:30:18.702Z,1.73
2023-04-22T11:32:54.011Z,1.70
2023-04-22T11:35:27.779Z,1.85
2023-04-22T11:38:01.052Z,1.83
2023-04-22T11:40:35.870Z,1.90
2023-04-22T11:43:07.070Z,14.52
2023-04-22T11:45:36.400Z,1.85
2023-04-22T11:48:05.820Z,1.92
2023-04-22T11:50:36.024Z,2.20
2023-04-22T11:53:05.172Z,1.88
2023-04-22T11:55:35.453Z,1.80
2023-04-22T11:58:25.365Z,2.20
2023-04-22T12:00:54.550Z,2.20
2023-04-22T12:03:27.039Z,1.63
2023-04-22T12:06:01.376Z,2.15
2023-04-22T12:08:34.415Z,1.75
2023-04-22T12:11:07.159Z,1.73
2023-04-22T12:13:43.961Z,1.83
2023-04-22T12:16:29.602Z,1.70
2023-04-22T12:18:56.722Z,2.10
2023-04-22T12:21:26.042Z,2.10
2023-04-22T12:24:08.215Z,1.80
2023-04-22T12:26:38.176Z,1.80
2023-04-22T12:29:05.464Z,1.88
2023-04-22T12:31:33.221Z,2.08
2023-04-22T12:34:00.602Z,1.52
2023-04-22T12:36:28.272Z,3.67
2023-04-22T12:38:55.346Z,2.42
2023-04-22T12:41:23.836Z,1.98
2023-04-22T12:43:52.902Z,1.80
2023-04-22T12:46:21.103Z,1.77
2023-04-22T12:48:48.355Z,2.47
2023-04-22T12:51:16.227Z,2.30
2023-04-22T12:53:43.544Z,1.90
2023-04-22T12:56:10.961Z,2.03
2023-04-22T12:58:38.084Z,2.33
2023-04-22T13:01:05.591Z,1.90
2023-04-22T13:03:32.893Z,1.77
2023-04-22T13:06:00.526Z,2.00
2023-04-22T13:08:29.106Z,1.63
2023-04-22T13:10:56.581Z,1.92
2023-04-22T13:13:24.701Z,2.00
2023-04-22T13:15:58.187Z,2.60
2023-04-22T13:18:25.435Z,1.80
2023-04-22T13:20:55.157Z,2.13
2023-04-22T13:23:23.516Z,2.28
2023-04-22T13:25:51.766Z,2.30
2023-04-22T13:28:20.242Z,2.15
2023-04-22T13:30:47.835Z,3.47
2023-04-22T13:33:15.008Z,2.22
2023-04-22T13:35:43.016Z,1.85
2023-04-22T13:38:10.265Z,2.35
2023-04-22T13:40:37.695Z,2.45
2023-04-22T13:43:04.869Z,2.03
2023-04-22T13:45:32.924Z,2.20
2023-04-22T13:48:00.437Z,3.17
2023-04-22T13:50:28.291Z,4.68
2023-04-22T13:52:55.496Z,3.22
2023-04-22T13:55:23.146Z,2.70
2023-04-22T13:57:52.012Z,2.72
2023-04-22T14:00:20.867Z,2.28
2023-04-22T14:02:48.710Z,2.33
2023-04-22T14:05:16.660Z,2.70
2023-04-22T14:07:43.822Z,2.97
2023-04-22T14:10:13.222Z,2.25
2023-04-22T14:12:40.762Z,2.72
2023-04-22T14:15:11.135Z,2.60
2023-04-22T14:17:40.276Z,4.05
2023-04-22T14:20:09.792Z,3.35
2023-04-22T14:22:37.147Z,3.40
2023-04-22T14:25:04.912Z,3.83
2023-04-22T14:27:32.835Z,3.00
2023-04-22T14:30:01.300Z,6.00
2023-04-22T14:32:29.373Z,3.67
2023-04-22T14:34:56.845Z,3.60
2023-04-22T14:37:24.109Z,3.88
2023-04-22T14:39:51.871Z,5.72
2023-04-22T14:42:19.644Z,4.95
2023-04-22T14:44:47.278Z,4.22
2023-04-22T14:47:14.428Z,4.47
2023-04-22T14:49:42.115Z,4.45
2023-04-22T14:52:09.298Z,4.72
2023-04-22T14:54:36.946Z,4.90
2023-04-22T14:57:04.249Z,6.05
2023-04-22T14:59:31.631Z,4.63
2023-04-22T15:01:58.876Z,4.22
2023-04-22T15:04:26.719Z,4.63
2023-04-22T15:06:57.499Z,5.20
2023-04-22T15:09:25.333Z,4.80
2023-04-22T15:11:54.249Z,6.22
2023-04-22T15:14:22.048Z,5.15
2023-04-22T15:16:49.211Z,5.20
2023-04-22T15:19:16.719Z,5.97
2023-04-22T15:21:43.789Z,6.68
2023-04-22T15:24:11.353Z,5.10
2023-04-22T15:26:40.719Z,8.45
2023-04-22T15:29:08.165Z,5.53
2023-04-22T15:31:37.912Z,17.73
2023-04-22T15:34:06.637Z,7.38
2023-04-22T15:36:33.779Z,6.65
2023-04-22T15:39:01.487Z,6.10
2023-04-22T15:41:28.682Z,6.07
2023-04-22T15:43:56.011Z,6.03
2023-04-22T15:46:23.442Z,6.30
2023-04-22T15:48:50.892Z,6.13
2023-04-22T15:51:19.225Z,5.28
2023-04-22T15:53:46.690Z,4.75
2023-04-22T15:56:15.355Z,4.70
2023-04-22T15:58:42.665Z,5.25
2023-04-22T16:01:18.747Z,4.35
2023-04-22T16:03:48.984Z,4.38
2023-04-22T16:06:17.451Z,4.47
2023-04-22T16:08:45.703Z,4.20
2023-04-22T16:11:15.414Z,5.70
2023-04-22T16:13:43.449Z,4.72
2023-04-22T16:16:11.229Z,4.68
2023-04-22T16:18:39.025Z,5.13
2023-04-22T16:21:06.574Z,5.30
2023-04-22T16:23:34.780Z,4.82
2023-04-22T16:26:04.451Z,4.78
2023-04-22T16:28:32.761Z,8.32
2023-04-22T16:31:02.387Z,6.93
2023-04-22T16:33:29.861Z,5.65
2023-04-22T16:35:57.570Z,5.88
2023-04-22T16:38:25.348Z,6.05
2023-04-22T16:40:54.370Z,6.03
2023-04-22T16:43:22.082Z,6.28
2023-04-22T16:45:51.734Z,10.77
2023-04-22T16:48:19.243Z,8.35
2023-04-22T16:50:46.337Z,7.32
2023-04-22T16:53:13.806Z,7.18
2023-04-22T16:55:41.532Z,8.80
2023-04-22T16:58:09.019Z,8.05
2023-04-22T17:00:36.242Z,10.05
2023-04-22T17:03:04.217Z,10.68
2023-04-22T17:05:31.715Z,10.88
2023-04-22T17:07:59.672Z,10.73
2023-04-22T17:10:27.739Z,9.35
2023-04-22T17:12:55.500Z,8.25
2023-04-22T17:15:22.714Z,7.78
2023-04-22T17:17:50.376Z,7.22
2023-04-22T17:20:17.786Z,5.22
2023-04-22T17:22:46.287Z,5.10
2023-04-22T17:25:13.577Z,4.05
2023-04-22T17:27:41.032Z,4.70
2023-04-22T17:30:08.862Z,4.97
2023-04-22T17:32:37.001Z,4.43
2023-04-22T17:35:04.604Z,4.47
2023-04-22T17:37:32.093Z,7.85
2023-04-22T17:39:59.553Z,5.85
2023-04-22T17:42:38.722Z,6.00
2023-04-22T17:45:10.964Z,4.13
2023-04-22T17:47:41.176Z,4.43
2023-04-22T17:50:10.161Z,4.50
2023-04-22T17:52:37.805Z,5.00
2023-04-22T17:55:05.603Z,6.80
2023-04-22T17:57:33.318Z,6.95
2023-04-22T18:00:00.547Z,8.10
2023-04-22T18:02:28.352Z,9.25
2023-04-22T18:04:56.055Z,9.52
2023-04-22T18:07:24.093Z,10.57
2023-04-22T18:09:51.808Z,10.63
2023-04-22T18:12:21.023Z,10.07
2023-04-22T18:14:48.309Z,10.88
2023-04-22T18:17:20.090Z,8.57
2023-04-22T18:19:51.249Z,8.32
2023-04-22T18:22:19.622Z,7.45
2023-04-22T18:24:47.158Z,7.47
2023-04-22T18:27:14.777Z,7.03
2023-04-22T18:29:42.554Z,7.22
2023-04-22T18:32:11.370Z,7.18
2023-04-22T18:34:39.147Z,6.53
2023-04-22T18:37:07.390Z,6.75
2023-04-22T18:39:34.600Z,6.03
2023-04-22T18:42:03.017Z,6.03
2023-04-22T18:44:30.615Z,6.78
2023-04-22T18:46:58.587Z,7.87
2023-04-22T18:49:26.423Z,7.37
2023-04-22T18:51:54.313Z,6.20
2023-04-22T18:54:21.800Z,6.23
2023-04-22T18:56:49.336Z,6.07
2023-04-22T18:59:16.601Z,5.13
2023-04-22T19:01:44.537Z,5.80
2023-04-22T19:04:12.375Z,5.43
2023-04-22T19:06:41.543Z,5.83
2023-04-22T19:09:08.702Z,7.73
2023-04-22T19:11:36.294Z,8.10
2023-04-22T19:14:03.614Z,6.97
2023-04-22T19:16:31.145Z,7.40
2023-04-22T19:18:58.385Z,7.50
2023-04-22T19:21:27.144Z,7.23
2023-04-22T19:23:56.396Z,8.63
2023-04-22T19:26:32.619Z,14.87
2023-04-22T19:29:01.905Z,13.40
2023-04-22T19:31:30.854Z,11.50
2023-04-22T19:33:59.870Z,13.00
2023-04-22T19:36:36.486Z,15.53
2023-04-22T19:39:06.197Z,8.97
2023-04-22T19:41:34.660Z,8.27
2023-04-22T19:44:02.276Z,7.70
2023-04-22T19:46:29.897Z,8.63
2023-04-22T19:48:57.569Z,8.80
2023-04-22T19:51:25.152Z,12.23
2023-04-22T19:53:54.042Z,11.63
2023-04-22T19:56:21.761Z,11.57
2023-04-22T19:58:49.785Z,12.57
2023-04-22T20:01:17.655Z,11.50
2023-04-22T20:03:45.618Z,11.97
2023-04-22T20:06:15.125Z,10.77
2023-04-22T20:08:43.266Z,11.60
2023-04-22T20:11:12.061Z,12.17
2023-04-22T20:13:41.175Z,11.67
2023-04-22T20:16:10.019Z,12.03
2023-04-22T20:18:39.871Z,13.13
2023-04-22T20:21:12.106Z,11.80
2023-04-22T20:23:42.863Z,13.23
2023-04-22T20:26:14.669Z,14.43
2023-04-22T20:28:52.107Z,15.17
2023-04-22T20:31:22.591Z,14.83
2023-04-22T20:33:51.158Z,14.33
2023-04-22T20:36:24.562Z,13.50
2023-04-22T20:38:55.012Z,13.60
2023-04-22T20:41:24.754Z,14.77
2023-04-22T20:43:52.547Z,15.10
2023-04-22T20:46:22.808Z,17.87
2023-04-22T20:48:50.521Z,23.50
2023-04-22T20:51:18.331Z,21.90
2023-04-22T20:53:45.494Z,20.53
2023-04-22T20:56:13.330Z,25.93
2023-04-22T20:58:40.558Z,28.80
2023-04-22T21:01:09.204Z,29.60
2023-04-22T21:03:40.412Z,31.63
2023-04-22T21:06:09.267Z,30.73
2023-04-22T21:08:39.304Z,34.67
2023-04-22T21:11:07.614Z,35.57
2023-04-22T21:13:35.249Z,35.67
2023-04-22T21:16:04.406Z,32.30
2023-04-22T21:18:33.734Z,27.30
2023-04-22T21:21:04.875Z,28.57
2023-04-22T21:23:32.481Z,30.97
2023-04-22T21:26:02.088Z,44.93
2023-04-22T21:28:29.956Z,43.53
2023-04-22T21:30:58.194Z,50.27
2023-04-22T21:33:25.596Z,38.73
2023-04-22T21:35:53.319Z,31.67
2023-04-22T21:38:20.860Z,27.07
2023-04-22T21:40:48.252Z,29.80
2023-04-22T21:43:15.470Z,31.77
2023-04-22T21:45:42.881Z,40.43
2023-04-22T21:48:10.057Z,39.90
2023-04-22T21:50:37.934Z,31.73
2023-04-22T21:53:05.261Z,27.83
2023-04-22T21:55:32.634Z,27.07
2023-04-22T21:57:59.756Z,22.63
2023-04-22T22:00:27.376Z,22.73
2023-04-22T22:02:54.668Z,25.97
2023-04-22T22:05:22.430Z,45.17
2023-04-22T22:07:50.172Z,59.87
2023-04-22T22:10:22.832Z,58.70
2023-04-22T22:12:51.165Z,53.87
2023-04-22T22:15:18.946Z,48.33
2023-04-22T22:17:46.293Z,44.63
2023-04-22T22:20:20.373Z,39.80
2023-04-22T22:22:48.009Z,36.70
2023-04-22T22:25:16.820Z,35.57
2023-04-22T22:27:49.309Z,37.03
2023-04-22T22:30:19.017Z,42.70
2023-04-22T22:32:46.900Z,55.53
2023-04-22T22:35:14.545Z,63.27
2023-04-22T22:37:41.751Z,62.40
2023-04-22T22:40:10.269Z,57.67
2023-04-22T22:42:37.381Z,53.27
2023-04-22T22:45:08.351Z,46.10
2023-04-22T22:47:36.065Z,38.83
2023-04-22T22:50:03.866Z,36.07
2023-04-22T22:52:32.311Z,31.60
2023-04-22T22:54:59.904Z,29.20
2023-04-22T22:57:27.142Z,26.83
2023-04-22T22:59:54.627Z,26.23
2023-04-22T23:02:21.865Z,24.27
2023-04-22T23:04:49.563Z,25.50
2023-04-22T23:07:17.771Z,24.33
2023-04-22T23:09:45.347Z,23.43
2023-04-22T23:12:12.806Z,23.77
2023-04-22T23:14:41.345Z,25.10
2023-04-22T23:17:09.178Z,25.03
2023-04-22T23:19:36.950Z,24.37
2023-04-22T23:22:06.931Z,23.13
2023-04-22T23:24:34.837Z,21.97
2023-04-22T23:27:02.293Z,19.60
2023-04-22T23:29:30.066Z,16.93
2023-04-22T23:32:00.760Z,17.57
2023-04-22T23:34:31.311Z,16.10
2023-04-22T23:36:59.048Z,14.77
2023-04-22T23:39:26.433Z,12.70
2023-04-22T23:41:53.536Z,13.33
2023-04-22T23:44:21.008Z,14.07
2023-04-22T23:46:48.299Z,14.77
2023-04-22T23:49:15.947Z,14.63
2023-04-22T23:51:43.890Z,14.77
2023-04-22T23:54:11.635Z,12.70
2023-04-22T23:56:39.118Z,15.10
2023-04-22T23:59:07.322Z,14.73
